Portada
METAR-TAF:

METAR-TAF

Aeroports :

Puerto Limón, Costa Rica

latitud: 10-00N, longitud: 083-03W, altitud: 5 m

Observació

L'informe es va fer fa 1 hora i 1 minuts, a les 15:00 UTC
Vent 3 kt del Est
Temperatura 28°C
Humitat 66%
Pressió 1014 hPa
Visibilitat 10 km o més
sense núvols per sota de 1500 mi sense presència de cumulonimbus.

METAR: MRLM 221500Z 08003KT CAVOK 28/21 A2993

Hora: 10:01 (16:01 UTC)

Pronòstic

L'informe es va fer fa 5 hores i 1 minuts, a les 11:00 UTC
Pronòstic vàlid del 22 a les 12 UTC al 23 a les 12 UTC
Vent 4 kt del Oest/Sud-Oest
Visibilitat 10 km o més
Núvols disperses a una alçada de 2000 ft
Evolucionant progressivament
l' 22 a les 14 UTC al 22 a les 16 UTC
Vent 7 kt del Nord
Evolucionant progressivament
l' 22 a les 23 UTC al 23 a les 01 UTC
Vent 4 kt del Oest/Sud-Oest

TAF: MRLM 221100Z 2212/2312 24004KT 9999 SCT020 TX31/2219Z TN21/2212Z BECMG 2214/2216 01007KT BECMG 2223/2301 25004KT

Observacions i pronòstics meteorològics de més de 4000 aeroports (METAR i TAF).

Les estacions disponibles són els punts grocs i vermells al mapa.

Posi el ratolí al punt desitjat per veure el nom de l'estació.

Feu clic per veure les observacions i els pronòstics meteorològics.

Per canviar el mapa: feu clic els botons verds amb una creu de color negre per apropar; al botó verd amb un guió per allunyar la imatge; o en les fletxes verdes per a mapes adjacents.


METAR-TAF: